createdAt,value
2019-04-30T00:03:11.525Z,67.40
2019-04-30T00:07:18.923Z,66.10
2019-04-30T00:11:22.139Z,65.50
2019-04-30T00:15:28.200Z,64.50
2019-04-30T00:19:35.822Z,67.00
2019-04-30T00:23:41.162Z,64.80
2019-04-30T00:27:48.214Z,66.90
2019-04-30T00:31:57.638Z,66.50
2019-04-30T00:36:01.236Z,66.50
2019-04-30T00:40:07.829Z,67.30
2019-04-30T00:44:15.039Z,67.20
2019-04-30T00:48:28.163Z,65.90
2019-04-30T00:52:29.513Z,65.50
2019-04-30T00:56:35.589Z,67.30
2019-04-30T01:01:11.357Z,65.90
2019-04-30T01:05:19.064Z,67.20
2019-04-30T01:09:25.668Z,64.40
2019-04-30T01:13:31.505Z,66.20
2019-04-30T01:17:40.578Z,68.80
2019-04-30T01:21:47.139Z,66.90
2019-04-30T01:25:53.072Z,66.70
2019-04-30T01:29:58.750Z,64.50
2019-04-30T01:34:05.064Z,64.90
2019-04-30T01:38:12.850Z,67.00
2019-04-30T01:42:19.670Z,66.40
2019-04-30T01:46:25.396Z,66.00
2019-04-30T01:50:33.699Z,67.90
2019-04-30T01:54:39.121Z,66.60
2019-04-30T01:58:54.567Z,66.70
2019-04-30T02:03:02.041Z,67.20
2019-04-30T02:07:09.011Z,67.50
2019-04-30T02:11:14.724Z,66.60
2019-04-30T02:15:20.343Z,65.50
2019-04-30T02:19:26.071Z,66.20
2019-04-30T02:23:31.703Z,66.10
2019-04-30T02:27:38.988Z,67.40
2019-04-30T02:31:44.998Z,67.20
2019-04-30T02:36:19.843Z,66.20
2019-04-30T02:40:25.565Z,65.90
2019-04-30T02:44:31.941Z,67.70
2019-04-30T02:48:39.685Z,65.10
2019-04-30T02:52:45.339Z,68.20
2019-04-30T02:57:06.642Z,66.20
2019-04-30T03:01:12.313Z,69.50
2019-04-30T03:05:20.219Z,67.30
2019-04-30T03:09:25.151Z,70.50
2019-04-30T03:13:30.794Z,70.40
2019-04-30T03:18:09.666Z,70.90
2019-04-30T03:22:20.105Z,69.10
2019-04-30T03:26:24.817Z,70.40
2019-04-30T03:30:31.959Z,71.00
2019-04-30T03:34:41.941Z,67.40
2019-04-30T03:38:45.144Z,69.30
2019-04-30T03:42:51.427Z,70.60
2019-04-30T03:46:59.276Z,71.10
2019-04-30T03:51:05.123Z,69.50
2019-04-30T03:55:11.420Z,70.30
2019-04-30T03:59:19.686Z,72.00
2019-04-30T04:03:25.391Z,73.30
2019-04-30T04:08:01.800Z,70.10
2019-04-30T04:12:23.575Z,69.40
2019-04-30T04:16:32.118Z,69.80
2019-04-30T04:20:39.552Z,70.30
2019-04-30T04:24:45.162Z,71.00
2019-04-30T04:28:50.909Z,71.30
2019-04-30T04:32:56.893Z,71.70
2019-04-30T04:37:02.572Z,70.40
2019-04-30T04:41:10.359Z,73.60
2019-04-30T04:45:15.556Z,72.70
2019-04-30T04:49:21.307Z,72.00
2019-04-30T04:53:26.952Z,71.50
2019-04-30T04:57:33.245Z,71.80
2019-04-30T05:01:38.998Z,73.90
2019-04-30T05:05:44.621Z,71.00
2019-04-30T05:09:50.186Z,70.10
2019-04-30T05:13:55.762Z,70.80
2019-04-30T05:18:01.346Z,72.00
2019-04-30T05:22:07.152Z,76.50
2019-04-30T05:26:12.698Z,77.80
2019-04-30T05:30:19.867Z,76.70
2019-04-30T05:34:25.528Z,74.10
2019-04-30T05:38:31.331Z,73.80
2019-04-30T05:42:38.755Z,73.10
2019-04-30T05:46:44.532Z,74.40
2019-04-30T05:50:51.828Z,74.20
2019-04-30T05:54:59.825Z,73.90
2019-04-30T05:59:05.897Z,72.50
2019-04-30T06:03:11.611Z,74.80
2019-04-30T06:07:18.875Z,75.50
2019-04-30T06:11:42.057Z,73.30
2019-04-30T06:15:59.734Z,71.70
2019-04-30T06:20:17.462Z,73.50
2019-04-30T06:24:12.551Z,73.30
2019-04-30T06:28:19.606Z,74.20
2019-04-30T06:32:25.469Z,73.00
2019-04-30T06:36:31.085Z,75.40
2019-04-30T06:40:36.659Z,73.00
2019-04-30T06:44:42.224Z,73.70
2019-04-30T06:48:50.808Z,75.60
2019-04-30T06:52:58.781Z,74.20
2019-04-30T06:57:02.618Z,74.20
2019-04-30T07:01:09.503Z,74.90
2019-04-30T07:05:15.122Z,73.70
2019-04-30T07:09:51.712Z,74.60
2019-04-30T07:13:49.515Z,77.60
2019-04-30T07:17:56.215Z,75.20
2019-04-30T07:22:02.980Z,76.40
2019-04-30T07:26:09.153Z,75.10
2019-04-30T07:30:14.938Z,77.30
2019-04-30T07:34:20.479Z,76.50
2019-04-30T07:38:26.100Z,76.10
2019-04-30T07:42:36.284Z,77.70
2019-04-30T07:46:41.069Z,76.90
2019-04-30T07:50:46.337Z,77.10
2019-04-30T07:54:52.284Z,75.50
2019-04-30T07:59:00.695Z,74.80
2019-04-30T08:03:15.471Z,75.00
2019-04-30T08:07:21.567Z,76.30
2019-04-30T08:11:29.300Z,76.90
2019-04-30T08:15:34.823Z,77.70
2019-04-30T08:19:41.043Z,78.20
2019-04-30T08:23:48.811Z,77.40
2019-04-30T08:27:54.157Z,81.40
2019-04-30T08:31:59.899Z,75.70
2019-04-30T08:36:05.568Z,80.80
2019-04-30T08:40:11.221Z,79.60
2019-04-30T08:44:16.842Z,80.10
2019-04-30T08:48:22.455Z,76.60
2019-04-30T08:52:28.018Z,77.20
2019-04-30T08:56:33.642Z,81.90
2019-04-30T09:00:39.274Z,76.70
2019-04-30T09:04:44.904Z,77.00
2019-04-30T09:08:53.396Z,75.20
2019-04-30T09:12:59.822Z,80.20
2019-04-30T09:17:05.552Z,79.00
2019-04-30T09:21:11.196Z,78.00
2019-04-30T09:25:16.791Z,75.80
2019-04-30T09:29:22.438Z,82.60
2019-04-30T09:33:29.402Z,78.00
2019-04-30T09:37:35.325Z,78.80
2019-04-30T09:41:41.972Z,78.50
2019-04-30T09:45:49.550Z,77.40
2019-04-30T09:49:54.905Z,77.90
2019-04-30T09:54:03.399Z,76.90
2019-04-30T09:58:16.685Z,78.20
2019-04-30T10:02:15.003Z,80.00
2019-04-30T10:06:20.667Z,77.00
2019-04-30T10:10:31.511Z,80.10
2019-04-30T10:14:40.812Z,78.20
2019-04-30T10:18:44.485Z,77.80
2019-04-30T10:22:50.109Z,82.30
2019-04-30T10:26:55.761Z,76.60
2019-04-30T10:31:01.381Z,82.50
2019-04-30T10:35:07.352Z,84.50
2019-04-30T10:39:12.994Z,83.40
2019-04-30T10:43:19.802Z,78.40
2019-04-30T10:47:25.535Z,79.40
2019-04-30T10:51:31.156Z,80.50
2019-04-30T10:55:38.642Z,81.60
2019-04-30T10:59:44.165Z,83.90
2019-04-30T11:03:49.704Z,82.40
2019-04-30T11:07:55.429Z,78.50
2019-04-30T11:12:03.074Z,84.80
2019-04-30T11:16:14.665Z,84.40
2019-04-30T11:20:15.996Z,86.30
2019-04-30T11:24:21.905Z,81.60
2019-04-30T11:28:28.380Z,84.60
2019-04-30T11:32:36.032Z,83.30
2019-04-30T11:36:41.874Z,85.30
2019-04-30T11:40:48.591Z,82.30
2019-04-30T11:44:54.199Z,83.40
2019-04-30T11:48:59.920Z,82.30
2019-04-30T11:53:19.620Z,86.70
2019-04-30T11:57:12.824Z,86.10
2019-04-30T12:01:20.057Z,84.40
2019-04-30T12:05:26.181Z,87.10
2019-04-30T12:09:50.601Z,82.90
2019-04-30T12:13:56.162Z,86.10
2019-04-30T12:18:01.956Z,88.40
2019-04-30T12:22:07.900Z,85.40
2019-04-30T12:26:13.497Z,85.90
2019-04-30T12:30:20.750Z,83.30
2019-04-30T12:34:26.393Z,89.20
2019-04-30T12:38:32.151Z,83.10
2019-04-30T12:42:38.459Z,81.90
2019-04-30T12:46:44.277Z,87.90
2019-04-30T12:51:12.439Z,87.80
2019-04-30T12:55:35.786Z,91.70
2019-04-30T12:59:41.377Z,87.40
2019-04-30T13:03:56.684Z,83.20
2019-04-30T13:07:54.745Z,90.00
2019-04-30T13:12:01.668Z,91.10
2019-04-30T13:16:08.542Z,92.20
2019-04-30T13:20:20.867Z,89.10
2019-04-30T13:24:21.666Z,91.20
2019-04-30T13:28:29.004Z,88.70
2019-04-30T13:32:40.517Z,88.20
2019-04-30T13:36:46.322Z,90.10
2019-04-30T13:41:18.719Z,90.10
2019-04-30T13:45:25.690Z,87.70
2019-04-30T13:49:31.282Z,90.50
2019-04-30T13:53:36.937Z,88.10
2019-04-30T13:57:42.553Z,90.50
2019-04-30T14:01:48.891Z,88.10
2019-04-30T14:05:54.604Z,87.70
2019-04-30T14:10:00.206Z,88.60
2019-04-30T14:14:05.917Z,90.70
2019-04-30T14:18:11.683Z,91.40
2019-04-30T14:22:17.938Z,86.00
2019-04-30T14:26:23.570Z,87.70
2019-04-30T14:30:29.352Z,88.40
2019-04-30T14:34:35.980Z,90.80
2019-04-30T14:38:41.942Z,91.00
2019-04-30T14:42:54.276Z,87.70
2019-04-30T14:47:09.674Z,90.10
2019-04-30T14:51:14.252Z,91.30
2019-04-30T14:55:44.965Z,87.00
2019-04-30T15:00:24.390Z,87.70
2019-04-30T15:04:30.046Z,91.50
2019-04-30T15:08:35.745Z,86.90
2019-04-30T15:12:41.542Z,89.60
2019-04-30T15:16:47.212Z,81.40
2019-04-30T15:20:52.826Z,90.70
2019-04-30T15:24:59.786Z,87.50
2019-04-30T15:29:11.774Z,85.30
2019-04-30T15:33:21.147Z,86.00
2019-04-30T15:37:28.674Z,85.00
2019-04-30T15:41:34.600Z,85.70
2019-04-30T15:45:40.401Z,80.70
2019-04-30T15:49:46.446Z,84.60
2019-04-30T15:53:52.224Z,87.20
2019-04-30T15:58:04.671Z,84.60
2019-04-30T16:02:18.777Z,86.40
2019-04-30T16:06:24.542Z,85.90
2019-04-30T16:10:52.109Z,86.30
2019-04-30T16:14:58.998Z,90.30
2019-04-30T16:19:04.719Z,86.10
2019-04-30T16:23:10.298Z,80.80
2019-04-30T16:27:15.958Z,85.80
2019-04-30T16:31:23.169Z,83.50
2019-04-30T16:35:29.587Z,85.20
2019-04-30T16:39:36.327Z,82.90
2019-04-30T16:43:44.109Z,89.30
2019-04-30T16:47:49.637Z,81.70
2019-04-30T16:51:55.278Z,86.10
2019-04-30T16:56:01.453Z,85.40
2019-04-30T17:00:09.346Z,85.20
2019-04-30T17:04:26.450Z,86.60
2019-04-30T17:08:44.717Z,87.80
2019-04-30T17:13:15.459Z,83.80
2019-04-30T17:17:21.268Z,86.30
2019-04-30T17:21:27.063Z,84.90
2019-04-30T17:25:32.677Z,87.50
2019-04-30T17:29:38.406Z,81.10
2019-04-30T17:33:44.156Z,85.60
2019-04-30T17:37:58.293Z,88.50
2019-04-30T17:42:07.502Z,85.30
2019-04-30T17:46:13.194Z,86.90
2019-04-30T17:50:19.094Z,83.80
2019-04-30T17:54:25.357Z,82.70
2019-04-30T17:58:31.021Z,90.20
2019-04-30T18:02:36.739Z,87.90
2019-04-30T18:06:42.462Z,85.90
2019-04-30T18:10:48.260Z,89.80
2019-04-30T18:14:54.022Z,88.50
2019-04-30T18:19:19.319Z,85.40
2019-04-30T18:23:37.324Z,88.40
2019-04-30T18:28:10.382Z,89.50
2019-04-30T18:32:19.681Z,85.50
2019-04-30T18:36:25.416Z,85.70
2019-04-30T18:40:31.096Z,87.80
2019-04-30T18:44:37.625Z,85.50
2019-04-30T18:48:43.385Z,83.60
2019-04-30T18:52:50.673Z,83.90
2019-04-30T18:57:00.020Z,88.40
2019-04-30T19:01:05.965Z,86.20
2019-04-30T19:05:17.846Z,84.60
2019-04-30T19:10:00.865Z,86.00
2019-04-30T19:14:20.720Z,84.30
2019-04-30T19:18:51.732Z,82.50
2019-04-30T19:22:59.219Z,84.40
2019-04-30T19:27:12.011Z,85.00
2019-04-30T19:31:19.722Z,84.00
2019-04-30T19:35:27.541Z,82.10
2019-04-30T19:39:33.395Z,84.40
2019-04-30T19:43:41.541Z,83.90
2019-04-30T19:47:49.034Z,81.70
2019-04-30T19:52:07.593Z,84.90
2019-04-30T19:56:03.327Z,87.00
2019-04-30T20:00:12.900Z,85.80
2019-04-30T20:04:18.690Z,87.40
2019-04-30T20:08:24.648Z,84.80
2019-04-30T20:12:31.517Z,82.40
2019-04-30T20:16:40.283Z,81.60
2019-04-30T20:20:51.791Z,84.90
2019-04-30T20:24:59.120Z,86.30
2019-04-30T20:29:04.507Z,86.20
2019-04-30T20:33:10.441Z,86.30
2019-04-30T20:37:16.265Z,82.30
2019-04-30T20:41:23.730Z,85.80
2019-04-30T20:45:29.574Z,85.90
2019-04-30T20:49:35.534Z,83.50
2019-04-30T20:53:42.156Z,82.90
2019-04-30T20:57:49.474Z,83.00
2019-04-30T21:01:56.874Z,84.60
2019-04-30T21:06:03.196Z,82.50
2019-04-30T21:10:10.257Z,82.50
2019-04-30T21:14:16.128Z,84.10
2019-04-30T21:18:23.365Z,87.00
2019-04-30T21:22:29.602Z,86.00
2019-04-30T21:26:36.120Z,86.10
2019-04-30T21:30:42.335Z,83.90
2019-04-30T21:35:01.413Z,84.20
2019-04-30T21:39:09.042Z,84.80
2019-04-30T21:43:14.931Z,85.70
2019-04-30T21:47:21.251Z,83.90
2019-04-30T21:51:26.989Z,85.10
2019-04-30T21:55:32.749Z,85.80
2019-04-30T21:59:41.035Z,83.60
2019-04-30T22:03:48.334Z,82.30
2019-04-30T22:07:53.966Z,84.10
2019-04-30T22:12:00.889Z,84.90
2019-04-30T22:16:07.925Z,83.50
2019-04-30T22:20:14.997Z,83.70
2019-04-30T22:24:20.820Z,83.50
2019-04-30T22:28:26.617Z,82.80
2019-04-30T22:32:33.957Z,81.30
2019-04-30T22:36:43.553Z,83.20
2019-04-30T22:40:49.718Z,82.40
2019-04-30T22:44:55.450Z,83.60
2019-04-30T22:49:01.562Z,82.20
2019-04-30T22:53:07.313Z,82.00
2019-04-30T22:57:15.536Z,82.80
2019-04-30T23:01:35.721Z,83.80
2019-04-30T23:05:43.560Z,80.30
2019-04-30T23:09:49.251Z,83.50
2019-04-30T23:13:56.819Z,82.90
2019-04-30T23:18:02.495Z,82.60
2019-04-30T23:22:09.026Z,81.70
2019-04-30T23:26:14.749Z,81.20
2019-04-30T23:30:20.434Z,82.30
2019-04-30T23:34:27.148Z,82.40
2019-04-30T23:38:32.882Z,82.20
2019-04-30T23:42:38.792Z,81.90
2019-04-30T23:46:46.985Z,82.80
2019-04-30T23:50:54.057Z,82.80
2019-04-30T23:54:59.694Z,81.20
2019-04-30T23:59:06.430Z,81.20
